Baltimore, MD (21206)

7:14 PM EST on February 01, 2015 (GMT -0500)
Parkville/Harris | Change Station
CLOSE
Current Station
Personal Weather Station
Location: Baltimore, MD
Elevation: 351 ft
Nearby Weather Stations

Elev 351 ft 39.37 °N, 76.54 °W | Updated 8 minutes ago

Overcast
Overcast
35.1 °F
Feels Like 31 °F
N
4.7
Wind Variable Wind from ESE

Today
High -- | Low -- °F
--% Chance of Precip.
Yesterday
High -- | Low -- °F
Precip. -- in
7:13 AM 5:26 PM
Waxing Gibbous, 96% visible
Pressure 30.05 in
Visibility 10.0 miles
Clouds Few 6000 ft
Overcast 11000 ft
Windchill 31 °F
Dew Point 24 °F
Humidity 64%
Rainfall 0.00 in
Snow Depth Not available.
UV 0 out of 12
Pollen .30 out of 12
Air Quality Not available.
Flu Activity Not available.
METAR KBWI 012354Z 13005KT 10SM FEW060 OVC110 02/M06 A3005 RMK AO2 SLP175 T00221061 10039 20022 56022

More Conditions Fewer Conditions

Pressure 30.05 in
Visibility 10.0 miles
Clouds Few 6000 ft
Overcast 11000 ft
Windchill 31 °F
Dew Point 24 °F
Humidity 64%
Rainfall 0.00 in
Snow Depth Not available.
UV 0 out of 12
Pollen .30 out of 12
Air Quality Not available.
Flu Activity Not available.
METAR KBWI 012354Z 13005KT 10SM FEW060 OVC110 02/M06 A3005 RMK AO2 SLP175 T00221061 10039 20022 56022

More Conditions Fewer Conditions

10-Day Weather Forecast

Almanac

Astronomy

Feb. 01, 2015 Rise Set
Actual Time
Civil Twilight
Nautical Twilight
Astronomical Twilight
Moon
Length of Visible Light
Length of Day
Tomorrow will be .
, % of the Moon is Illuminated

Today's Extremes

State Highs State Lows

Community

WunderPhotos

Upload Photos

1,792,619 photos uploaded!

WunderBlogs® & News

Nearby

Air Quality

  Air Quality AQ Index Pollutant
Not available.

Snow Depth

Station Depth Elevation

Earthquake Activity

City Distance Mag. Time & Date
Minimum magnitude displayed is 2.5.

Coastal Water Temperatures

Place Temperature

Nearby Weather Stations